Time;durP1;ratioP1;P1;durP2;ratioP2;P2;SDS_P1;SDS_P2;PMS_P1;PMS_P2;Temp;Humidity;BMP_temperature;BMP_pressure;BME280_temperature;BME280_humidity;BME280_pressure;Samples;Min_cycle;Max_cycle;Signal;HPM_P1;HPM_P2
2023/02/24 00:01:36;;;;;;;;;;;;;;;-144.99;90.65;52619.31;5008248;28;20367;-67
2023/02/24 00:04:06;;;;;;;;;;;;;;;-144.99;90.39;52607.09;5004395;28;20008;-67
2023/02/24 00:06:36;;;;;;;;;;;;;;;-144.99;90.06;52615.25;5011283;28;19936;-66
2023/02/24 00:09:06;;;;;;;;;;;;;;;-144.99;90.52;52594.84;5012508;28;19944;-67
2023/02/24 00:11:33;;;;;;;;;;;;;;;-144.99;90.63;52615.25;5009454;28;19965;-67
2023/02/24 00:14:00;;;;;;;;;;;;;;;-144.99;90.42;52594.84;5011223;28;20000;-67
2023/02/24 00:16:26;;;;;;;;;;;;;;;-144.99;90.07;52631.53;5010406;28;19944;-67
2023/02/24 00:18:53;;;;;;;;;;;;;;;-144.99;90.02;52586.69;5011334;28;20397;-68
2023/02/24 00:21:19;;;;;;;;;;;;;;;-144.99;90.08;52603.00;5003744;28;19939;-68
2023/02/24 00:23:47;;;;;;;;;;;;;;;-144.99;90.18;52631.53;5009408;28;20129;-67
2023/02/24 00:26:15;;;;;;;;;;;;;;;-144.99;90.29;52609.13;5010222;28;20004;-68
2023/02/24 00:28:43;;;;;;;;;;;;;;;-144.99;89.74;52619.31;5007869;28;19942;-68
2023/02/24 00:31:12;;;;;;;;;;;;;;;-144.99;89.33;52623.38;5009295;28;19958;-69
2023/02/24 00:33:40;;;;;;;;;;;;;;;-144.99;88.82;52633.59;5009642;28;19965;-65
2023/02/24 00:36:08;;;;;;;;;;;;;;;-144.99;88.08;52603.00;5011131;28;20563;-67
2023/02/24 00:38:35;;;;;;;;;;;;;;;-144.99;88.05;52607.09;5009944;28;20033;-67
2023/02/24 00:41:07;;;;;;;;;;;;;;;-144.99;87.74;52584.66;5011573;28;19945;-67
2023/02/24 00:43:36;;;;;;;;;;;;;;;-144.99;87.32;52578.53;5010099;28;20007;-67
2023/02/24 00:46:09;;;;;;;;;;;;;;;-144.99;87.20;52613.19;5006983;28;19951;-68
2023/02/24 00:48:39;;;;;;;;;;;;;;;-144.99;86.69;52562.25;5011710;28;20263;-68
2023/02/24 00:51:06;;;;;;;;;;;;;;;-144.99;86.70;52619.31;5010685;28;20012;-68
2023/02/24 00:53:33;;;;;;;;;;;;;;;-144.99;87.24;52582.63;5005584;28;19955;-67
2023/02/24 00:56:00;;;;;;;;;;;;;;;-144.99;87.25;52584.66;5013718;28;20029;-71
2023/02/24 00:58:28;;;;;;;;;;;;;;;-144.99;86.77;52609.13;5014655;28;19939;-72
2023/02/24 01:00:56;;;;;;;;;;;;;;;-144.99;87.16;52660.09;5014505;28;19943;-69
2023/02/24 01:03:24;;;;;;;;;;;;;;;-144.99;87.32;52641.72;5013634;28;19948;-69
2023/02/24 01:05:52;;;;;;;;;;;;;;;-144.99;87.26;52594.84;5011705;28;20321;-69
2023/02/24 01:08:20;;;;;;;;;;;;;;;-144.99;87.27;52590.78;5005145;28;19941;-69
2023/02/24 01:12:00;;;;;;;;;;;;;;;-144.99;87.02;52615.25;5015604;28;19955;-69
2023/02/24 01:13:41;;;;;;;;;;;;;;;-144.99;87.02;52619.31;5011457;28;19992;-70
2023/02/24 01:16:07;;;;;;;;;;;;;;;-144.99;87.11;52578.53;5012381;28;20416;-69
2023/02/24 01:18:34;;;;;;;;;;;;;;;-144.99;86.40;52623.38;5016288;28;19942;-69
2023/02/24 01:21:00;;;;;;;;;;;;;;;-144.99;86.17;52611.16;5013597;28;19979;-69
2023/02/24 01:23:27;;;;;;;;;;;;;;;-144.99;86.04;52609.13;5015511;28;19942;-71
2023/02/24 01:25:57;;;;;;;;;;;;;;;-144.99;85.79;52580.59;5014352;28;20481;-70
2023/02/24 01:28:23;;;;;;;;;;;;;;;-144.99;85.89;52629.50;5011081;28;19946;-70
2023/02/24 01:30:51;;;;;;;;;;;;;;;-144.99;86.12;52611.16;5013470;28;19999;-68
2023/02/24 01:33:18;;;;;;;;;;;;;;;-144.99;86.12;52651.94;5015652;28;19946;-66
2023/02/24 01:35:44;;;;;;;;;;;;;;;-144.99;86.39;52600.97;5014487;28;19941;-66
2023/02/24 01:38:11;;;;;;;;;;;;;;;-144.99;86.39;52615.25;5015014;28;20040;-66
2023/02/24 01:40:38;;;;;;;;;;;;;;;-144.99;86.87;52607.09;5013976;28;19972;-66
2023/02/24 01:43:07;;;;;;;;;;;;;;;-144.99;87.00;52607.09;5015252;28;20029;-66
2023/02/24 01:45:35;;;;;;;;;;;;;;;-144.99;87.25;52598.94;5013094;28;19955;-66
2023/02/24 01:48:05;;;;;;;;;;;;;;;-144.99;87.52;52578.53;5010288;28;19977;-66
2023/02/24 01:50:34;;;;;;;;;;;;;;;-144.99;87.62;52574.47;5016023;28;19963;-72
2023/02/24 01:53:02;;;;;;;;;;;;;;;-144.99;87.56;52615.25;5012768;28;19946;-72
2023/02/24 01:55:31;;;;;;;;;;;;;;;-144.99;87.88;52619.31;5011728;28;19956;-72
2023/02/24 01:57:59;;;;;;;;;;;;;;;-144.99;87.93;52627.47;5012732;28;19962;-66
2023/02/24 02:00:36;;;;;;;;;;;;;;;-144.99;88.25;52615.25;5016889;28;19925;-66
2023/02/24 02:03:07;;;;;;;;;;;;;;;-144.99;88.68;52586.69;5011522;28;20404;-65
2023/02/24 02:05:34;;;;;;;;;;;;;;;-144.99;88.56;52617.28;5015329;28;20062;-65
2023/02/24 02:08:01;;;;;;;;;;;;;;;-144.99;88.93;52594.84;5012016;28;19946;-65
2023/02/24 02:10:28;;;;;;;;;;;;;;;-144.99;89.34;52603.00;5010525;28;19969;-65
2023/02/24 02:12:55;;;;;;;;;;;;;;;-144.99;89.48;52603.00;5011687;28;20033;-64
2023/02/24 02:15:22;;;;;;;;;;;;;;;-144.99;90.22;52611.16;5015351;28;20655;-64
2023/02/24 02:17:55;;;;;;;;;;;;;;;-144.99;90.20;52639.69;5011161;28;19944;-64
2023/02/24 02:20:33;;;;;;;;;;;;;;;-144.99;90.78;52607.09;5007966;28;20000;-64
2023/02/24 02:23:23;;;;;;;;;;;;;;;-144.99;90.86;52664.16;5015558;28;19991;-63
2023/02/24 02:26:01;;;;;;;;;;;;;;;-144.99;90.69;52619.31;4996278;28;20416;-65
2023/02/24 02:28:45;;;;;;;;;;;;;;;-144.99;90.83;52619.31;5007686;28;19943;-64
2023/02/24 02:31:45;;;;;;;;;;;;;;;-144.99;90.19;52603.00;5010594;28;19972;-64
2023/02/24 02:34:19;;;;;;;;;;;;;;;-144.99;89.84;52586.69;4953487;28;19960;-65
2023/02/24 02:36:54;;;;;;;;;;;;;;;-144.99;89.46;52609.13;5002650;28;20408;-65
2023/02/24 02:39:25;;;;;;;;;;;;;;;-144.99;89.03;52607.09;5010209;28;19937;-66
2023/02/24 02:41:54;;;;;;;;;;;;;;;-144.99;89.39;52633.59;5010232;28;20397;-73
2023/02/24 02:44:23;;;;;;;;;;;;;;;-144.99;89.37;52611.16;5009900;28;19955;-74
2023/02/24 02:46:53;;;;;;;;;;;;;;;-144.99;90.01;52619.31;5009456;28;19938;-74
2023/02/24 02:49:29;;;;;;;;;;;;;;;-144.99;90.12;52574.47;5009288;28;19976;-74
2023/02/24 02:51:58;;;;;;;;;;;;;;;-144.99;89.91;52623.38;5006462;28;19953;-74
2023/02/24 02:54:29;;;;;;;;;;;;;;;-144.99;90.01;52631.53;5009182;28;20403;-74
2023/02/24 02:56:59;;;;;;;;;;;;;;;-144.99;89.92;52594.84;5010859;28;20413;-74
2023/02/24 02:59:27;;;;;;;;;;;;;;;-144.99;89.78;52635.63;5005481;28;19938;-74
2023/02/24 03:02:00;;;;;;;;;;;;;;;-144.99;90.14;52603.00;5009756;28;19994;-74
2023/02/24 03:04:29;;;;;;;;;;;;;;;-144.99;89.83;52619.31;5009428;28;20070;-73
2023/02/24 03:06:57;;;;;;;;;;;;;;;-144.99;89.48;52623.38;5008496;28;20035;-74
2023/02/24 03:09:26;;;;;;;;;;;;;;;-144.99;89.60;52603.00;5004483;28;20026;-74
2023/02/24 03:11:58;;;;;;;;;;;;;;;-144.99;89.38;52615.25;5010344;28;19952;-74
2023/02/24 03:14:26;;;;;;;;;;;;;;;-144.99;89.27;52588.75;5005097;28;20020;-72
2023/02/24 03:16:54;;;;;;;;;;;;;;;-144.99;88.90;52613.19;5009706;28;20266;-73
2023/02/24 03:19:25;;;;;;;;;;;;;;;-144.99;88.90;52619.31;5011947;28;19981;-73
2023/02/24 03:21:57;;;;;;;;;;;;;;;-144.99;88.36;52594.84;5011691;28;19993;-71
2023/02/24 03:24:24;;;;;;;;;;;;;;;-144.99;88.20;52613.19;5002538;28;20366;-72
2023/02/24 03:26:52;;;;;;;;;;;;;;;-144.99;87.80;52631.53;5013443;28;19991;-66
2023/02/24 03:29:22;;;;;;;;;;;;;;;-144.99;88.07;52556.13;5003042;28;19944;-67
2023/02/24 03:31:52;;;;;;;;;;;;;;;-144.99;87.53;52582.63;5004853;28;19964;-66
2023/02/24 03:34:22;;;;;;;;;;;;;;;-144.99;87.84;52578.53;5006251;28;19956;-65
2023/02/24 03:36:49;;;;;;;;;;;;;;;-144.99;87.91;52613.19;5008281;28;19960;-66
2023/02/24 03:39:17;;;;;;;;;;;;;;;-144.99;87.83;52635.63;5006368;28;20440;-66
2023/02/24 03:41:46;;;;;;;;;;;;;;;-144.99;87.90;52611.16;5011268;28;19954;-65
2023/02/24 03:44:13;;;;;;;;;;;;;;;-144.99;87.92;52607.09;5011346;28;19928;-65
2023/02/24 03:46:41;;;;;;;;;;;;;;;-144.99;88.09;52598.94;5010466;28;19937;-65
2023/02/24 03:49:15;;;;;;;;;;;;;;;-144.99;88.09;52617.28;5012157;28;19953;-63
2023/02/24 03:51:43;;;;;;;;;;;;;;;-144.99;88.22;52582.63;5010722;28;19966;-63
2023/02/24 03:54:16;;;;;;;;;;;;;;;-144.99;88.41;52582.63;5010539;28;19961;-63
2023/02/24 03:56:56;;;;;;;;;;;;;;;-144.99;88.15;52603.00;5011000;28;20427;-63
2023/02/24 03:59:30;;;;;;;;;;;;;;;-144.99;88.51;52627.47;5004094;28;19946;-63
2023/02/24 04:02:00;;;;;;;;;;;;;;;-144.99;88.18;52619.31;5013235;28;20046;-63
2023/02/24 04:04:30;;;;;;;;;;;;;;;-144.99;88.82;52643.78;5012507;28;19952;-64
2023/02/24 04:07:00;;;;;;;;;;;;;;;-144.99;89.18;52611.16;5014394;28;19976;-65
2023/02/24 04:09:31;;;;;;;;;;;;;;;-144.99;89.04;52611.16;5005864;28;19936;-65
2023/02/24 04:12:12;;;;;;;;;;;;;;;-144.99;89.18;52615.25;5012423;28;20054;-65
2023/02/24 04:14:43;;;;;;;;;;;;;;;-144.99;89.75;52619.31;5014640;28;19965;-67
2023/02/24 04:17:13;;;;;;;;;;;;;;;-144.99;89.75;52611.16;5010768;28;20387;-67
2023/02/24 04:19:42;;;;;;;;;;;;;;;-144.99;90.18;52611.16;5008595;28;20439;-66
2023/02/24 04:22:12;;;;;;;;;;;;;;;-144.99;90.18;52600.97;5013829;28;19949;-67
2023/02/24 04:24:41;;;;;;;;;;;;;;;-144.99;90.09;52615.25;5012564;28;19958;-67
2023/02/24 04:27:11;;;;;;;;;;;;;;;-144.99;90.23;52598.94;5014950;28;20009;-66
2023/02/24 04:29:45;;;;;;;;;;;;;;;-144.99;91.01;52578.53;5008504;28;20421;-65
2023/02/24 04:32:13;;;;;;;;;;;;;;;-144.99;91.21;52598.94;5011468;28;19979;-66
2023/02/24 04:34:40;;;;;;;;;;;;;;;-144.99;91.82;52611.16;5016043;28;19961;-69
2023/02/24 04:37:06;;;;;;;;;;;;;;;-144.99;93.10;52631.53;5010237;28;20269;-67
2023/02/24 04:39:37;;;;;;;;;;;;;;;-144.99;93.38;52598.94;5013730;28;19941;-66
2023/02/24 04:42:04;;;;;;;;;;;;;;;-144.99;93.36;52586.69;5012298;28;19968;-65
2023/02/24 04:44:32;;;;;;;;;;;;;;;-144.99;93.38;52586.69;5012580;28;19958;-66
2023/02/24 04:46:59;;;;;;;;;;;;;;;-144.99;94.35;52615.25;5005675;28;19970;-66
2023/02/24 04:49:26;;;;;;;;;;;;;;;-144.99;94.55;52607.09;5011691;28;19993;-69
2023/02/24 04:51:52;;;;;;;;;;;;;;;-144.99;95.66;52598.94;5010525;28;20333;-65
2023/02/24 04:54:20;;;;;;;;;;;;;;;-144.99;95.27;52586.69;5007564;28;19957;-66
2023/02/24 04:56:49;;;;;;;;;;;;;;;-144.99;95.82;52594.84;5010154;28;19936;-67
2023/02/24 04:59:16;;;;;;;;;;;;;;;-144.99;94.59;52623.38;5010133;28;19938;-66
2023/02/24 05:01:44;;;;;;;;;;;;;;;-144.99;94.35;52637.66;5010707;28;20026;-67
2023/02/24 05:04:11;;;;;;;;;;;;;;;-144.99;94.78;52619.31;5009986;28;20425;-68
2023/02/24 05:06:39;;;;;;;;;;;;;;;-144.99;94.93;52611.16;5010595;28;19941;-69
2023/02/24 05:09:12;;;;;;;;;;;;;;;-144.99;94.46;52605.03;5008979;28;19945;-67
2023/02/24 05:11:41;;;;;;;;;;;;;;;-144.99;94.16;52600.97;5010937;28;19960;-66
2023/02/24 05:14:07;;;;;;;;;;;;;;;-144.99;93.88;52627.47;5012027;28;19995;-66
2023/02/24 05:16:34;;;;;;;;;;;;;;;-144.99;94.20;52603.00;5011423;28;20037;-65
2023/02/24 05:21:46;;;;;;;;;;;;;;;-144.99;94.13;52623.38;5013395;28;19947;-71
2023/02/24 05:24:16;;;;;;;;;;;;;;;-144.99;94.47;52625.44;5008142;28;19989;-70
2023/02/24 05:26:42;;;;;;;;;;;;;;;-144.99;94.20;52598.94;5014335;28;20054;-69
2023/02/24 05:29:08;;;;;;;;;;;;;;;-144.99;93.72;52623.38;5007590;28;19972;-70
2023/02/24 05:31:36;;;;;;;;;;;;;;;-144.99;93.75;52590.78;5010922;28;20276;-69
2023/02/24 05:34:06;;;;;;;;;;;;;;;-144.99;93.91;52619.31;5010452;28;19961;-69
2023/02/24 05:36:34;;;;;;;;;;;;;;;-144.99;94.46;52613.19;5006269;28;20445;-71
2023/02/24 05:39:06;;;;;;;;;;;;;;;-144.99;95.10;52623.38;5016153;28;19941;-69
2023/02/24 05:41:34;;;;;;;;;;;;;;;-144.99;97.27;52617.28;5012336;28;19969;-70
2023/02/24 05:44:03;;;;;;;;;;;;;;;-144.99;98.76;52619.31;5013719;28;20322;-71
2023/02/24 05:46:31;;;;;;;;;;;;;;;-144.99;98.98;52560.19;5013745;28;19943;-71
2023/02/24 05:48:59;;;;;;;;;;;;;;;-144.99;98.76;52564.28;5013567;28;20085;-71
2023/02/24 05:51:33;;;;;;;;;;;;;;;-144.99;99.51;52635.63;5014475;28;20029;-71
2023/02/24 05:54:03;;;;;;;;;;;;;;;-144.99;100.00;52613.19;5007523;28;19965;-71
2023/02/24 05:56:29;;;;;;;;;;;;;;;-144.99;100.00;52590.78;5011130;28;19943;-72
2023/02/24 05:59:00;;;;;;;;;;;;;;;-144.99;100.00;52596.88;5007151;28;20347;-69
2023/02/24 06:01:29;;;;;;;;;;;;;;;-144.99;100.00;52578.53;5010822;28;19940;-71
2023/02/24 06:03:56;;;;;;;;;;;;;;;-144.99;100.00;52617.28;5010809;28;19993;-71
2023/02/24 06:06:23;;;;;;;;;;;;;;;-144.99;100.00;52586.69;5013293;28;19936;-72
2023/02/24 06:08:51;;;;;;;;;;;;;;;-144.99;100.00;52558.16;5015130;28;20016;-72
2023/02/24 06:11:19;;;;;;;;;;;;;;;-144.99;100.00;52578.53;5013409;28;20034;-71
2023/02/24 06:13:47;;;;;;;;;;;;;;;-144.99;100.00;52631.53;5011243;28;19956;-77
2023/02/24 06:16:14;;;;;;;;;;;;;;;-144.99;100.00;52586.69;4315586;28;10000697;-78
2023/02/24 06:18:41;;;;;;;;;;;;;;;-144.99;100.00;52564.28;5007396;28;20062;-77
2023/02/24 06:21:07;;;;;;;;;;;;;;;-144.99;100.00;52574.47;5000333;28;20466;-78
2023/02/24 06:23:34;;;;;;;;;;;;;;;-144.99;100.00;52594.84;4996275;28;20071;-77
2023/02/24 06:26:03;;;;;;;;;;;;;;;-144.99;100.00;52574.47;5006291;28;19930;-78
2023/02/24 06:28:30;;;;;;;;;;;;;;;-144.99;100.00;52621.34;5004990;28;19944;-78
2023/02/24 06:30:56;;;;;;;;;;;;;;;-144.99;100.00;52566.31;5007464;28;19940;-78
2023/02/24 06:33:25;;;;;;;;;;;;;;;-144.99;100.00;52603.00;5007482;28;19933;-79
2023/02/24 06:35:52;;;;;;;;;;;;;;;-144.99;100.00;52623.38;5007989;28;19964;-78
2023/02/24 06:38:19;;;;;;;;;;;;;;;-144.99;100.00;52619.31;5007686;28;19970;-79
2023/02/24 06:40:46;;;;;;;;;;;;;;;-144.99;100.00;52615.25;5007034;28;19944;-78
2023/02/24 06:43:14;;;;;;;;;;;;;;;-144.99;100.00;52578.53;5006888;28;19943;-78
2023/02/24 06:45:40;;;;;;;;;;;;;;;-144.99;100.00;52605.03;5003051;28;20345;-78
2023/02/24 06:48:07;;;;;;;;;;;;;;;-144.99;100.00;52617.28;5002799;28;20429;-78
2023/02/24 06:50:35;;;;;;;;;;;;;;;-144.99;100.00;52607.09;5007351;28;19940;-77
2023/02/24 06:53:01;;;;;;;;;;;;;;;-144.99;100.00;52594.84;5007664;28;20326;-78
2023/02/24 06:55:28;;;;;;;;;;;;;;;-144.99;100.00;52600.97;5005317;28;20041;-78
2023/02/24 06:57:58;;;;;;;;;;;;;;;-144.99;100.00;52621.34;5005412;28;19943;-78
2023/02/24 07:00:35;;;;;;;;;;;;;;;-144.99;100.00;52582.63;5006078;28;19968;-78
2023/02/24 07:03:13;;;;;;;;;;;;;;;-144.99;100.00;52570.38;5003540;28;19977;-77
2023/02/24 07:05:41;;;;;;;;;;;;;;;-144.99;100.00;52578.53;4999655;28;20957;-78
2023/02/24 07:08:07;;;;;;;;;;;;;;;-144.99;100.00;52603.00;5004179;28;19950;-77
2023/02/24 07:10:34;;;;;;;;;;;;;;;-144.99;100.00;52560.19;5007582;28;19926;-77
2023/02/24 07:13:00;;;;;;;;;;;;;;;-144.99;100.00;52578.53;5008711;28;19961;-78
2023/02/24 07:15:30;;;;;;;;;;;;;;;-144.99;100.00;52619.31;5023065;28;19936;-77
2023/02/24 07:17:57;;;;;;;;;;;;;;;-144.99;100.00;52623.38;5021465;28;19971;-78
2023/02/24 07:20:25;;;;;;;;;;;;;;;-144.99;100.00;52615.25;5007218;28;20371;-77
2023/02/24 07:22:51;;;;;;;;;;;;;;;-144.99;100.00;52615.25;5007252;28;20016;-77
2023/02/24 07:25:31;;;;;;;;;;;;;;;-144.99;100.00;52594.84;5007589;28;20087;-77
2023/02/24 07:28:00;;;;;;;;;;;;;;;-144.99;100.00;52633.59;5007745;28;19930;-77
2023/02/24 07:30:29;;;;;;;;;;;;;;;-144.99;100.00;52586.69;5007794;28;19946;-78
2023/02/24 07:32:56;;;;;;;;;;;;;;;-144.99;100.00;52592.81;5005686;28;20064;-77
2023/02/24 07:35:23;;;;;;;;;;;;;;;-144.99;100.00;52586.69;5000475;28;20032;-77
2023/02/24 07:37:50;;;;;;;;;;;;;;;-144.99;100.00;52615.25;5007623;28;20193;-77
2023/02/24 07:40:20;;;;;;;;;;;;;;;-144.99;100.00;52607.09;5007344;28;20004;-77
2023/02/24 07:42:47;;;;;;;;;;;;;;;-144.99;100.00;52603.00;5007242;28;20099;-77
2023/02/24 07:45:14;;;;;;;;;;;;;;;-144.99;100.00;52615.25;5006471;28;20024;-77
2023/02/24 07:47:42;;;;;;;;;;;;;;;-144.99;100.00;52635.63;5005908;28;19940;-77
2023/02/24 07:50:13;;;;;;;;;;;;;;;-144.99;100.00;52588.75;5005139;28;19967;-77
2023/02/24 07:52:40;;;;;;;;;;;;;;;-144.99;100.00;52619.31;5005242;28;20076;-77
2023/02/24 07:55:08;;;;;;;;;;;;;;;-144.99;100.00;52603.00;5004219;28;19991;-77
2023/02/24 07:57:36;;;;;;;;;;;;;;;-144.99;100.00;52586.69;4998646;28;19952;-77
2023/02/24 08:00:15;;;;;;;;;;;;;;;-144.99;100.00;52586.69;5001402;28;19968;-77
2023/02/24 08:02:43;;;;;;;;;;;;;;;-144.99;100.00;52603.00;5015379;28;19959;-79
2023/02/24 08:05:10;;;;;;;;;;;;;;;-144.99;100.00;52600.97;5014984;28;20041;-78
2023/02/24 08:07:36;;;;;;;;;;;;;;;-144.99;100.00;52615.25;5009469;28;19982;-77
2023/02/24 08:10:23;;;;;;;;;;;;;;;-144.99;100.00;52594.84;5003903;28;19968;-78
2023/02/24 08:12:53;;;;;;;;;;;;;;;-144.99;100.00;52594.84;5006102;28;19954;-77
2023/02/24 08:15:23;;;;;;;;;;;;;;;-144.99;100.00;52637.66;4995199;28;20270;-78
2023/02/24 08:17:51;;;;;;;;;;;;;;;-144.99;100.00;52590.78;5000364;28;20100;-78
2023/02/24 08:20:21;;;;;;;;;;;;;;;-144.99;100.00;52582.63;4997406;28;19940;-78
2023/02/24 08:22:51;;;;;;;;;;;;;;;-144.99;100.00;52570.38;5003742;28;19941;-78
2023/02/24 08:25:18;;;;;;;;;;;;;;;-144.99;100.00;52556.13;5006806;28;19959;-78
2023/02/24 08:27:45;;;;;;;;;;;;;;;-144.99;100.00;52615.25;5005950;28;19985;-77
2023/02/24 08:30:22;;;;;;;;;;;;;;;-144.99;100.00;52594.84;5003974;28;19929;-78
2023/02/24 08:32:55;;;;;;;;;;;;;;;-144.99;100.00;52603.00;5006219;28;20050;-78
2023/02/24 08:35:24;;;;;;;;;;;;;;;-144.99;100.00;52574.47;5003366;28;20249;-78
2023/02/24 08:37:52;;;;;;;;;;;;;;;-144.99;100.00;52611.16;5004845;28;20363;-77
2023/02/24 08:40:36;;;;;;;;;;;;;;;-144.99;100.00;52594.84;5001548;28;19944;-78
2023/02/24 08:43:14;;;;;;;;;;;;;;;-144.99;100.00;52596.88;5004922;28;20721;-78
2023/02/24 08:45:43;;;;;;;;;;;;;;;-144.99;100.00;52596.88;5007115;28;20025;-77
2023/02/24 08:48:17;;;;;;;;;;;;;;;-144.99;100.00;52629.50;5008238;28;19944;-78
2023/02/24 08:50:45;;;;;;;;;;;;;;;-144.99;100.00;52643.78;5012948;28;19990;-78
2023/02/24 08:53:17;;;;;;;;;;;;;;;-144.99;100.00;52584.66;5021682;28;19964;-78
2023/02/24 08:55:44;;;;;;;;;;;;;;;-144.99;100.00;52588.75;5007175;28;20450;-78
2023/02/24 08:58:16;;;;;;;;;;;;;;;-144.99;100.00;52594.84;5004074;28;20167;-78
2023/02/24 09:00:48;;;;;;;;;;;;;;;-144.99;100.00;52615.25;5004980;28;19983;-78
2023/02/24 09:03:26;;;;;;;;;;;;;;;-144.99;100.00;52623.38;5006576;28;20258;-78
2023/02/24 09:05:58;;;;;;;;;;;;;;;-144.99;100.00;52584.66;5005126;28;19966;-77
2023/02/24 09:08:31;;;;;;;;;;;;;;;-144.99;100.00;52578.53;5004322;28;19945;-78
2023/02/24 09:10:58;;;;;;;;;;;;;;;-144.99;100.00;52627.47;5004965;28;19948;-79
2023/02/24 09:13:31;;;;;;;;;;;;;;;-144.99;100.00;52594.84;5018554;28;20000;-78
2023/02/24 09:15:58;;;;;;;;;;;;;;;-144.99;100.00;52609.13;5013264;28;20448;-78
2023/02/24 09:18:29;;;;;;;;;;;;;;;-144.99;100.00;52603.00;5005065;28;19929;-78
2023/02/24 09:23:44;;;;;;;;;;;;;;;-144.99;100.00;52590.78;5013345;28;20080;-78
2023/02/24 09:26:12;;;;;;;;;;;;;;;-144.99;100.00;52645.81;5015257;28;19930;-77
2023/02/24 09:28:47;;;;;;;;;;;;;;;-144.99;100.00;52615.25;5015890;28;19942;-79
2023/02/24 09:31:15;;;;;;;;;;;;;;;-144.99;100.00;52558.16;5021691;28;20692;-77
2023/02/24 09:33:49;;;;;;;;;;;;;;;-144.99;100.00;52598.94;5011827;28;19934;-79
2023/02/24 09:36:26;;;;;;;;;;;;;;;-144.99;100.00;52582.63;5006067;28;19937;-78
2023/02/24 09:39:13;;;;;;;;;;;;;;;-144.99;100.00;52594.84;5007612;28;20352;-77
2023/02/24 09:42:27;;;;;;;;;;;;;;;-144.99;100.00;52578.53;5013187;28;19950;-79
2023/02/24 09:44:54;;;;;;;;;;;;;;;-144.99;100.00;52603.00;5002772;28;19963;-78
2023/02/24 09:47:38;;;;;;;;;;;;;;;-144.99;100.00;52584.66;5004993;28;19955;-79
2023/02/24 09:50:13;;;;;;;;;;;;;;;-144.99;100.00;52607.09;5000465;28;19963;-77
2023/02/24 09:52:43;;;;;;;;;;;;;;;-144.99;100.00;52603.00;5007383;28;20344;-78
2023/02/24 09:55:23;;;;;;;;;;;;;;;-144.99;100.00;52611.16;5009822;28;20379;-78
2023/02/24 10:00:54;;;;;;;;;;;;;;;-144.99;100.00;52588.75;4970959;28;20057;-77
2023/02/24 10:03:40;;;;;;;;;;;;;;;-144.99;100.00;52523.50;4999536;28;19959;-76
2023/02/24 10:06:13;;;;;;;;;;;;;;;-144.99;100.00;52564.28;5000716;28;20065;-76
2023/02/24 10:08:42;;;;;;;;;;;;;;;-144.99;100.00;52590.78;4995382;28;19996;-77
2023/02/24 10:11:11;;;;;;;;;;;;;;;-144.99;100.00;52582.63;4998771;28;19940;-77
2023/02/24 10:13:42;;;;;;;;;;;;;;;-144.99;100.00;52586.69;4999769;28;20057;-78
2023/02/24 10:16:11;;;;;;;;;;;;;;;-144.99;100.00;52594.84;5002219;28;19943;-77
2023/02/24 10:18:40;;;;;;;;;;;;;;;-144.99;100.00;52554.09;5001606;28;19949;-77
2023/02/24 10:21:15;;;;;;;;;;;;;;;-144.99;100.00;52582.63;4997955;28;19942;-76
2023/02/24 10:23:55;;;;;;;;;;;;;;;-144.99;100.00;52558.16;4998971;28;20022;-76
2023/02/24 10:26:30;;;;;;;;;;;;;;;-144.99;100.00;52600.97;5003368;28;19948;-75
2023/02/24 10:29:01;;;;;;;;;;;;;;;-144.99;100.00;52582.63;5013511;28;19963;-74
2023/02/24 10:31:34;;;;;;;;;;;;;;;-144.99;100.00;52556.13;5007468;28;19940;-75
2023/02/24 10:34:04;;;;;;;;;;;;;;;-144.99;100.00;52537.78;5015781;28;19969;-75
2023/02/24 10:36:35;;;;;;;;;;;;;;;-144.99;100.00;52582.63;5020017;28;19930;-76
2023/02/24 10:39:09;;;;;;;;;;;;;;;-144.99;100.00;52582.63;5004855;28;20047;-75
2023/02/24 10:41:45;;;;;;;;;;;;;;;-144.99;100.00;52578.53;5008608;28;19953;-75
2023/02/24 10:44:15;;;;;;;;;;;;;;;-144.99;100.00;52598.94;5004419;28;20442;-76
2023/02/24 10:46:41;;;;;;;;;;;;;;;-144.99;100.00;52598.94;5005915;28;19952;-75
2023/02/24 10:49:10;;;;;;;;;;;;;;;-144.99;100.00;52582.63;5001713;28;20030;-75
2023/02/24 10:51:39;;;;;;;;;;;;;;;-144.99;100.00;52550.00;5006618;28;20018;-76
2023/02/24 10:54:32;;;;;;;;;;;;;;;-144.99;100.00;52562.25;5003536;28;20376;-76
2023/02/24 10:57:14;;;;;;;;;;;;;;;-144.99;100.00;52578.53;4999832;28;19947;-76
2023/02/24 11:02:55;;;;;;;;;;;;;;;-144.99;100.00;52513.31;5005651;28;19959;-76
2023/02/24 11:05:37;;;;;;;;;;;;;;;-144.99;100.00;52590.78;5005911;28;20009;-76
2023/02/24 11:08:08;;;;;;;;;;;;;;;-144.99;100.00;52552.03;5008352;28;19950;-76
2023/02/24 11:10:51;;;;;;;;;;;;;;;-144.99;100.00;52533.69;5003057;28;19961;-77
2023/02/24 11:18:51;;;;;;;;;;;;;;;-144.99;100.00;52545.94;5024639;28;20103;-77
2023/02/24 11:21:18;;;;;;;;;;;;;;;-144.99;100.00;52558.16;5013055;28;20212;-77
2023/02/24 11:23:46;;;;;;;;;;;;;;;-144.99;100.00;52505.16;5021439;28;20445;-77
2023/02/24 11:26:16;;;;;;;;;;;;;;;-144.99;100.00;52550.00;5005069;28;19940;-76
2023/02/24 11:28:55;;;;;;;;;;;;;;;-144.99;100.00;52554.09;5004301;28;20478;-77
2023/02/24 11:31:50;;;;;;;;;;;;;;;-144.99;100.00;52572.44;5004373;28;22285;-77
2023/02/24 11:34:19;;;;;;;;;;;;;;;-144.99;100.00;52509.25;4999693;28;19966;-76
2023/02/24 11:36:53;;;;;;;;;;;;;;;-144.99;100.00;52570.38;5008749;28;19925;-77
2023/02/24 11:39:41;;;;;;;;;;;;;;;-144.99;100.00;52503.13;5004114;28;19955;-76
2023/02/24 11:42:10;;;;;;;;;;;;;;;-144.99;100.00;52531.66;5004821;28;19944;-76
2023/02/24 11:44:43;;;;;;;;;;;;;;;-144.99;100.00;52541.84;5001344;28;19962;-77
2023/02/24 11:47:13;;;;;;;;;;;;;;;-144.99;100.00;52537.78;5004997;28;19952;-77
2023/02/24 11:49:41;;;;;;;;;;;;;;;-144.99;100.00;52521.47;5014960;28;20342;-79
2023/02/24 11:52:12;;;;;;;;;;;;;;;-144.99;100.00;52566.31;5002962;28;19998;-79
2023/02/24 11:54:43;;;;;;;;;;;;;;;-144.99;100.00;52529.63;5009900;28;19956;-79
2023/02/24 11:57:14;;;;;;;;;;;;;;;-144.99;100.00;52525.56;5004232;28;19947;-80
2023/02/24 11:59:45;;;;;;;;;;;;;;;-144.99;100.00;52541.84;5018346;28;19924;-78
2023/02/24 12:02:16;;;;;;;;;;;;;;;-144.99;100.00;52537.78;5016926;28;19977;-82
2023/02/24 12:04:49;;;;;;;;;;;;;;;-144.99;100.00;52554.09;5025262;28;19929;-80
2023/02/24 12:07:19;;;;;;;;;;;;;;;-144.99;100.00;52521.47;5013565;28;19929;-83
2023/02/24 12:09:49;;;;;;;;;;;;;;;-144.99;100.00;52480.72;5024939;28;19940;-80
2023/02/24 12:12:18;;;;;;;;;;;;;;;-144.99;100.00;52521.47;5020696;28;19930;-82
2023/02/24 12:14:50;;;;;;;;;;;;;;;-144.99;100.00;52582.63;5024516;28;20001;-83
2023/02/24 12:17:19;;;;;;;;;;;;;;;-144.99;100.00;52521.47;5024641;28;19947;-80
2023/02/24 12:19:57;;;;;;;;;;;;;;;-144.99;100.00;52517.41;5023160;28;19940;-81
2023/02/24 12:22:26;;;;;;;;;;;;;;;-144.99;100.00;52541.84;5013522;28;19943;-80
2023/02/24 12:24:53;;;;;;;;;;;;;;;-144.99;100.00;52582.63;5016140;28;20020;-79
2023/02/24 12:27:26;;;;;;;;;;;;;;;-144.99;100.00;52545.94;5007754;28;20294;-79
2023/02/24 12:30:05;;;;;;;;;;;;;;;-144.99;100.00;52541.84;5010527;28;19947;-79
2023/02/24 12:32:41;;;;;;;;;;;;;;;-144.99;100.00;52537.78;5004104;28;19964;-81
2023/02/24 12:35:12;;;;;;;;;;;;;;;-144.99;100.00;52533.69;5006578;28;20010;-80
2023/02/24 12:37:49;;;;;;;;;;;;;;;-144.99;100.00;52541.84;5008155;28;19955;-80
2023/02/24 12:40:24;;;;;;;;;;;;;;;-144.99;100.00;52525.56;5009019;28;20380;-80
2023/02/24 12:42:57;;;;;;;;;;;;;;;-144.99;100.00;52566.31;5011245;28;19934;-79
2023/02/24 12:45:29;;;;;;;;;;;;;;;-144.99;100.00;52554.09;5005935;28;19981;-79
2023/02/24 12:48:05;;;;;;;;;;;;;;;-144.99;100.00;52517.41;5014983;28;20440;-80
2023/02/24 12:50:37;;;;;;;;;;;;;;;-144.99;100.00;52488.84;5010556;28;19946;-78
2023/02/24 12:53:06;;;;;;;;;;;;;;;-144.99;100.00;52558.16;5014281;28;20073;-79
2023/02/24 12:55:41;;;;;;;;;;;;;;;-144.99;100.00;52543.91;5010830;28;20373;-79